Time,TemperatureF,DewpointF,PressureIn,WindDirection,WindDirectionDegrees,WindSpeedMPH,WindSpeedGustMPH,Humidity,HourlyPrecipIn,Conditions,Clouds,dailyrainin,SoftwareType,DateUTC
2013-08-03 00:00:00,68.4,49.6,29.85,North,0,0.0,0.0,51,0.00,,,0.00,WUHU216HW,2013-08-03 07:00:00,
2013-08-03 00:05:00,68.2,49.4,29.86,North,0,0.0,0.0,51,0.00,,,0.00,WUHU216HW,2013-08-03 07:05:00,
2013-08-03 00:10:00,68.0,49.8,29.85,North,0,0.0,0.0,52,0.00,,,0.00,WUHU216HW,2013-08-03 07:10:00,
2013-08-03 00:15:00,67.9,49.6,29.85,North,0,0.0,0.0,52,0.00,,,0.00,WUHU216HW,2013-08-03 07:15:00,
2013-08-03 00:20:00,67.7,49.4,29.86,North,0,0.0,0.0,52,0.00,,,0.00,WUHU216HW,2013-08-03 07:20:00,
2013-08-03 00:25:00,67.5,49.2,29.86,North,0,0.0,0.0,52,0.00,,,0.00,WUHU216HW,2013-08-03 07:25:00,
2013-08-03 00:30:00,67.3,49.6,29.85,North,0,0.0,0.0,53,0.00,,,0.00,WUHU216HW,2013-08-03 07:30:00,
2013-08-03 00:35:00,67.3,49.6,29.85,North,0,0.0,0.0,53,0.00,,,0.00,WUHU216HW,2013-08-03 07:35:00,
2013-08-03 00:40:00,67.0,49.2,29.86,North,0,0.0,0.0,53,0.00,,,0.00,WUHU216HW,2013-08-03 07:40:00,
2013-08-03 00:45:00,67.0,49.2,29.86,North,0,0.0,0.0,53,0.00,,,0.00,WUHU216HW,2013-08-03 07:45:00,
2013-08-03 00:50:00,66.8,49.6,29.85,North,0,0.0,0.0,54,0.00,,,0.00,WUHU216HW,2013-08-03 07:50:00,
2013-08-03 00:55:00,66.6,49.4,29.85,North,0,0.0,0.0,54,0.00,,,0.00,WUHU216HW,2013-08-03 07:55:00,
2013-08-03 01:00:00,66.2,49.2,29.85,North,0,0.0,0.0,54,0.00,,,0.00,WUHU216HW,2013-08-03 08:00:00,
2013-08-03 01:05:00,66.2,49.6,29.85,North,0,0.0,0.0,55,0.00,,,0.00,WUHU216HW,2013-08-03 08:05:00,
2013-08-03 01:10:00,65.9,49.2,29.85,North,0,0.0,0.0,55,0.00,,,0.00,WUHU216HW,2013-08-03 08:10:00,
2013-08-03 01:15:00,65.9,49.2,29.85,North,0,0.2,0.2,55,0.00,,,0.00,WUHU216HW,2013-08-03 08:15:00,
2013-08-03 01:20:00,65.5,49.3,29.85,North,0,0.4,0.4,56,0.00,,,0.00,WUHU216HW,2013-08-03 08:20:00,
2013-08-03 01:25:00,65.5,49.3,29.85,North,0,0.0,0.0,56,0.00,,,0.00,WUHU216HW,2013-08-03 08:25:00,
2013-08-03 01:30:00,65.5,49.3,29.85,North,0,0.3,0.4,56,0.00,,,0.00,WUHU216HW,2013-08-03 08:30:00,
2013-08-03 01:40:00,65.2,49.5,29.86,North,0,0.0,0.0,57,0.00,,,0.00,WUHU216HW,2013-08-03 08:40:00,
2013-08-03 01:45:00,65.0,49.8,29.86,North,0,0.0,0.0,58,0.00,,,0.00,WUHU216HW,2013-08-03 08:45:00,
2013-08-03 01:50:00,64.8,50.1,29.86,North,0,0.0,0.0,59,0.00,,,0.00,WUHU216HW,2013-08-03 08:50:00,
2013-08-03 01:55:00,64.8,50.6,29.86,North,0,0.0,0.0,60,0.00,,,0.00,WUHU216HW,2013-08-03 08:55:00,
2013-08-03 02:00:00,64.8,50.6,29.86,North,0,0.0,0.0,60,0.00,,,0.00,WUHU216HW,2013-08-03 09:00:00,
2013-08-03 02:05:00,64.6,50.0,29.86,NNE,29,0.3,0.4,59,0.00,,,0.00,WUHU216HW,2013-08-03 09:05:00,
2013-08-03 02:10:00,64.3,49.6,29.86,NE,45,0.4,0.4,59,0.00,,,0.00,WUHU216HW,2013-08-03 09:10:00,
2013-08-03 02:15:00,63.9,49.8,29.86,North,0,0.0,0.0,60,0.00,,,0.00,WUHU216HW,2013-08-03 09:15:00,
2013-08-03 02:20:00,63.5,49.4,29.86,North,0,0.0,0.0,60,0.00,,,0.00,WUHU216HW,2013-08-03 09:20:00,
2013-08-03 02:25:00,63.4,49.7,29.86,North,0,0.0,0.0,61,0.00,,,0.00,WUHU216HW,2013-08-03 09:25:00,
2013-08-03 02:30:00,63.4,49.7,29.86,North,0,0.0,0.0,61,0.00,,,0.00,WUHU216HW,2013-08-03 09:30:00,
2013-08-03 02:35:00,63.5,49.9,29.86,North,0,0.0,0.0,61,0.00,,,0.00,WUHU216HW,2013-08-03 09:35:00,
2013-08-03 02:40:00,63.7,50.1,29.86,North,0,0.0,0.0,61,0.00,,,0.00,WUHU216HW,2013-08-03 09:40:00,
2013-08-03 02:45:00,63.9,49.8,29.85,North,0,0.0,0.0,60,0.00,,,0.00,WUHU216HW,2013-08-03 09:45:00,
2013-08-03 02:50:00,63.9,49.8,29.85,North,0,0.0,0.0,60,0.00,,,0.00,WUHU216HW,2013-08-03 09:50:00,
2013-08-03 02:55:00,64.1,49.4,29.85,North,0,0.0,0.0,59,0.00,,,0.00,WUHU216HW,2013-08-03 09:55:00,
2013-08-03 03:00:00,64.1,49.0,29.85,North,0,0.0,0.0,58,0.00,,,0.00,WUHU216HW,2013-08-03 10:00:00,
2013-08-03 03:05:00,63.9,49.2,29.85,ESE,113,0.3,0.4,59,0.00,,,0.00,WUHU216HW,2013-08-03 10:05:00,
2013-08-03 03:10:00,63.2,49.5,29.85,SE,135,0.4,0.4,61,0.00,,,0.00,WUHU216HW,2013-08-03 10:10:00,
2013-08-03 03:15:00,62.6,49.9,29.85,SE,129,0.4,0.4,63,0.00,,,0.00,WUHU216HW,2013-08-03 10:15:00,
2013-08-03 03:20:00,62.5,49.2,29.86,North,0,0.0,0.0,62,0.00,,,0.00,WUHU216HW,2013-08-03 10:20:00,
2013-08-03 03:25:00,62.6,49.1,29.85,North,0,0.0,0.0,61,0.00,,,0.00,WUHU216HW,2013-08-03 10:25:00,
2013-08-03 03:30:00,62.8,49.1,29.85,North,0,0.0,0.0,61,0.00,,,0.00,WUHU216HW,2013-08-03 10:30:00,
2013-08-03 03:35:00,63.0,49.0,29.86,North,0,0.0,0.0,60,0.00,,,0.00,WUHU216HW,2013-08-03 10:35:00,
2013-08-03 03:40:00,63.2,49.1,29.86,North,0,0.0,0.0,60,0.00,,,0.00,WUHU216HW,2013-08-03 10:40:00,
2013-08-03 03:45:00,63.0,49.3,29.85,North,0,0.0,0.0,61,0.00,,,0.00,WUHU216HW,2013-08-03 10:45:00,
2013-08-03 03:50:00,62.6,49.1,29.85,North,0,0.0,0.0,61,0.00,,,0.00,WUHU216HW,2013-08-03 10:50:00,
2013-08-03 03:55:00,62.5,48.9,29.85,North,0,0.0,0.0,61,0.00,,,0.00,WUHU216HW,2013-08-03 10:55:00,
2013-08-03 04:00:00,62.3,48.7,29.85,North,0,0.0,0.0,61,0.00,,,0.00,WUHU216HW,2013-08-03 11:00:00,
2013-08-03 04:05:00,62.3,48.2,29.85,North,0,0.0,0.0,60,0.00,,,0.00,WUHU216HW,2013-08-03 11:05:00,
2013-08-03 04:10:00,62.3,48.7,29.86,North,0,0.0,0.0,61,0.00,,,0.00,WUHU216HW,2013-08-03 11:10:00,
2013-08-03 04:15:00,62.3,48.7,29.86,North,0,0.0,0.0,61,0.00,,,0.00,WUHU216HW,2013-08-03 11:15:00,
2013-08-03 04:20:00,61.9,48.3,29.85,North,0,0.0,0.0,61,0.00,,,0.00,WUHU216HW,2013-08-03 11:20:00,
2013-08-03 04:25:00,61.9,48.3,29.86,North,0,0.0,0.0,61,0.00,,,0.00,WUHU216HW,2013-08-03 11:25:00,
2013-08-03 04:30:00,61.7,48.3,29.86,North,0,0.0,0.0,61,0.00,,,0.00,WUHU216HW,2013-08-03 11:30:00,
2013-08-03 04:35:00,61.6,48.1,29.86,North,0,0.0,0.0,61,0.00,,,0.00,WUHU216HW,2013-08-03 11:35:00,
2013-08-03 04:40:00,61.4,47.9,29.85,North,0,0.0,0.0,61,0.00,,,0.00,WUHU216HW,2013-08-03 11:40:00,
2013-08-03 04:45:00,61.2,48.2,29.86,North,0,0.0,0.0,62,0.00,,,0.00,WUHU216HW,2013-08-03 11:45:00,
2013-08-03 04:50:00,61.0,48.0,29.86,North,0,0.0,0.0,62,0.00,,,0.00,WUHU216HW,2013-08-03 11:50:00,
2013-08-03 04:55:00,60.8,47.8,29.86,North,0,0.0,0.0,62,0.00,,,0.00,WUHU216HW,2013-08-03 11:55:00,
2013-08-03 05:00:00,60.7,47.6,29.85,North,0,0.0,0.0,62,0.00,,,0.00,WUHU216HW,2013-08-03 12:00:00,
2013-08-03 05:05:00,60.5,47.4,29.86,North,0,0.0,0.0,62,0.00,,,0.00,WUHU216HW,2013-08-03 12:05:00,
2013-08-03 05:10:00,60.5,47.9,29.86,North,0,0.0,0.0,63,0.00,,,0.00,WUHU216HW,2013-08-03 12:10:00,
2013-08-03 05:15:00,60.3,48.1,29.86,North,0,0.0,0.0,64,0.00,,,0.00,WUHU216HW,2013-08-03 12:15:00,
2013-08-03 05:20:00,60.1,47.5,29.86,North,0,0.0,0.0,63,0.00,,,0.00,WUHU216HW,2013-08-03 12:20:00,
2013-08-03 05:25:00,59.9,47.7,29.86,North,0,0.0,0.0,64,0.00,,,0.00,WUHU216HW,2013-08-03 12:25:00,
2013-08-03 05:30:00,59.9,47.7,29.86,North,0,0.0,0.0,64,0.00,,,0.00,WUHU216HW,2013-08-03 12:30:00,
2013-08-03 05:35:00,59.8,47.5,29.87,North,0,0.0,0.0,64,0.00,,,0.00,WUHU216HW,2013-08-03 12:35:00,
2013-08-03 05:40:00,59.8,47.5,29.87,North,0,0.0,0.0,64,0.00,,,0.00,WUHU216HW,2013-08-03 12:40:00,
2013-08-03 05:45:00,59.4,47.2,29.87,SE,135,0.3,0.4,64,0.00,,,0.00,WUHU216HW,2013-08-03 12:45:00,
2013-08-03 05:50:00,59.4,47.2,29.87,SE,135,0.2,0.2,64,0.00,,,0.00,WUHU216HW,2013-08-03 12:50:00,
2013-08-03 05:55:00,59.2,47.0,29.87,North,0,0.0,0.0,64,0.00,,,0.00,WUHU216HW,2013-08-03 12:55:00,
2013-08-03 06:00:00,59.0,46.8,29.87,North,0,0.0,0.0,64,0.00,,,0.00,WUHU216HW,2013-08-03 13:00:00,
2013-08-03 06:05:00,59.0,47.3,29.87,North,0,0.0,0.0,65,0.00,,,0.00,WUHU216HW,2013-08-03 13:05:00,
2013-08-03 06:10:00,58.9,47.1,29.87,North,0,0.0,0.0,65,0.00,,,0.00,WUHU216HW,2013-08-03 13:10:00,
2013-08-03 06:15:00,58.7,46.9,29.88,North,0,0.0,0.0,65,0.00,,,0.00,WUHU216HW,2013-08-03 13:15:00,
2013-08-03 06:20:00,58.7,47.4,29.88,North,0,0.0,0.0,66,0.00,,,0.00,WUHU216HW,2013-08-03 13:20:00,
2013-08-03 06:25:00,59.0,47.7,29.88,North,0,0.0,0.0,66,0.00,,,0.00,WUHU216HW,2013-08-03 13:25:00,
2013-08-03 06:30:00,59.0,47.7,29.88,North,0,0.0,0.0,66,0.00,,,0.00,WUHU216HW,2013-08-03 13:30:00,
2013-08-03 06:35:00,59.0,47.7,29.88,North,0,0.0,0.0,66,0.00,,,0.00,WUHU216HW,2013-08-03 13:35:00,
2013-08-03 06:40:00,59.0,47.7,29.88,North,0,0.0,0.0,66,0.00,,,0.00,WUHU216HW,2013-08-03 13:40:00,
2013-08-03 06:45:00,59.4,48.1,29.88,North,0,0.0,0.0,66,0.00,,,0.00,WUHU216HW,2013-08-03 13:45:00,
2013-08-03 06:50:00,59.9,47.7,29.88,North,0,0.0,0.0,64,0.00,,,0.00,WUHU216HW,2013-08-03 13:50:00,
2013-08-03 06:55:00,60.3,48.5,29.88,North,0,0.0,0.0,65,0.00,,,0.00,WUHU216HW,2013-08-03 13:55:00,
2013-08-03 07:00:00,60.8,48.6,29.89,North,0,0.0,0.0,64,0.00,,,0.00,WUHU216HW,2013-08-03 14:00:00,
2013-08-03 07:05:00,61.2,48.5,29.89,North,0,0.0,0.0,63,0.00,,,0.00,WUHU216HW,2013-08-03 14:05:00,
2013-08-03 07:10:00,61.6,48.9,29.89,North,0,0.0,0.0,63,0.00,,,0.00,WUHU216HW,2013-08-03 14:10:00,
2013-08-03 07:15:00,61.9,49.2,29.89,North,0,0.0,0.0,63,0.00,,,0.00,WUHU216HW,2013-08-03 14:15:00,
2013-08-03 07:20:00,62.3,49.5,29.89,North,0,0.0,0.0,63,0.00,,,0.00,WUHU216HW,2013-08-03 14:20:00,
2013-08-03 07:25:00,62.8,50.1,29.90,SE,135,0.5,1.1,63,0.00,,,0.00,WUHU216HW,2013-08-03 14:25:00,
2013-08-03 07:30:00,63.4,50.1,29.90,ESE,113,0.4,0.4,62,0.00,,,0.00,WUHU216HW,2013-08-03 14:30:00,
2013-08-03 07:35:00,64.3,50.5,29.90,ESE,122,0.6,1.3,61,0.00,,,0.00,WUHU216HW,2013-08-03 14:35:00,
2013-08-03 07:40:00,65.0,50.3,29.90,ESE,120,0.4,0.7,59,0.00,,,0.00,WUHU216HW,2013-08-03 14:40:00,
2013-08-03 07:45:00,65.7,50.1,29.90,SE,132,1.0,2.0,57,0.00,,,0.00,WUHU216HW,2013-08-03 14:45:00,
2013-08-03 07:50:00,66.4,50.2,29.90,ESE,122,0.7,1.1,56,0.00,,,0.00,WUHU216HW,2013-08-03 14:50:00,
2013-08-03 07:55:00,66.8,50.6,29.90,SE,126,0.9,1.8,56,0.00,,,0.00,WUHU216HW,2013-08-03 14:55:00,
2013-08-03 08:00:00,67.3,50.6,29.90,SE,139,1.1,2.0,55,0.00,,,0.00,WUHU216HW,2013-08-03 15:00:00,
2013-08-03 08:05:00,67.7,50.9,29.91,ESE,123,1.4,2.2,55,0.00,,,0.00,WUHU216HW,2013-08-03 15:05:00,
2013-08-03 08:10:00,68.0,51.2,29.91,SE,127,1.5,2.5,55,0.00,,,0.00,WUHU216HW,2013-08-03 15:10:00,
2013-08-03 08:15:00,68.8,51.4,29.91,SE,146,1.5,2.2,54,0.00,,,0.00,WUHU216HW,2013-08-03 15:15:00,
2013-08-03 08:20:00,69.1,51.8,29.91,South,187,1.8,2.9,54,0.00,,,0.00,WUHU216HW,2013-08-03 15:20:00,
2013-08-03 08:25:00,69.3,51.4,29.91,SSE,168,2.3,3.8,53,0.00,,,0.00,WUHU216HW,2013-08-03 15:25:00,
2013-08-03 08:30:00,69.7,52.3,29.91,SSE,154,1.8,2.5,54,0.00,,,0.00,WUHU216HW,2013-08-03 15:30:00,
2013-08-03 08:35:00,70.2,52.7,29.91,SSE,163,1.8,2.5,54,0.00,,,0.00,WUHU216HW,2013-08-03 15:35:00,
2013-08-03 08:40:00,70.9,53.4,29.91,SSE,159,2.6,3.8,54,0.00,,,0.00,WUHU216HW,2013-08-03 15:40:00,
2013-08-03 08:45:00,71.5,53.9,29.91,SSE,147,2.7,4.3,54,0.00,,,0.00,WUHU216HW,2013-08-03 15:45:00,
2013-08-03 08:50:00,71.8,53.7,29.91,SSE,148,2.1,3.1,53,0.00,,,0.00,WUHU216HW,2013-08-03 15:50:00,
2013-08-03 08:55:00,72.0,53.8,29.92,South,181,2.4,3.4,53,0.00,,,0.00,WUHU216HW,2013-08-03 15:55:00,
2013-08-03 09:00:00,72.4,54.2,29.92,South,170,2.5,3.4,53,0.00,,,0.00,WUHU216HW,2013-08-03 16:00:00,
2013-08-03 09:05:00,73.1,54.4,29.92,SE,141,2.5,5.1,52,0.00,,,0.00,WUHU216HW,2013-08-03 16:05:00,
2013-08-03 09:10:00,73.6,54.8,29.91,SE,136,1.4,2.5,52,0.00,,,0.00,WUHU216HW,2013-08-03 16:10:00,
2013-08-03 09:15:00,74.2,54.9,29.91,SSE,160,1.8,2.5,51,0.00,,,0.00,WUHU216HW,2013-08-03 16:15:00,
2013-08-03 09:20:00,74.5,54.1,29.91,SSE,152,2.6,3.8,49,0.00,,,0.00,WUHU216HW,2013-08-03 16:20:00,
2013-08-03 09:25:00,75.1,54.6,29.91,SSE,149,2.2,3.8,49,0.00,,,0.00,WUHU216HW,2013-08-03 16:25:00,
2013-08-03 09:30:00,76.0,54.9,29.91,ESE,117,1.9,3.4,48,0.00,,,0.00,WUHU216HW,2013-08-03 16:30:00,
2013-08-03 09:35:00,76.9,54.5,29.91,SSE,155,2.4,3.4,46,0.00,,,0.00,WUHU216HW,2013-08-03 16:35:00,
2013-08-03 09:40:00,77.4,54.4,29.90,SSE,157,2.2,3.8,45,0.00,,,0.00,WUHU216HW,2013-08-03 16:40:00,
2013-08-03 09:45:00,78.1,55.0,29.90,SSE,165,2.4,3.6,45,0.00,,,0.00,WUHU216HW,2013-08-03 16:45:00,
2013-08-03 09:50:00,78.8,55.0,29.90,SSW,193,2.8,4.9,44,0.00,,,0.00,WUHU216HW,2013-08-03 16:50:00,
2013-08-03 09:55:00,79.4,54.3,29.90,SSW,192,3.8,5.4,42,0.00,,,0.00,WUHU216HW,2013-08-03 16:55:00,
2013-08-03 10:00:00,79.7,54.6,29.90,SSE,156,2.6,3.6,42,0.00,,,0.00,WUHU216HW,2013-08-03 17:00:00,
2013-08-03 10:05:00,80.1,55.5,29.90,South,169,3.1,4.3,43,0.00,,,0.00,WUHU216HW,2013-08-03 17:05:00,
2013-08-03 10:10:00,80.8,55.5,29.90,SSE,167,3.2,4.7,42,0.00,,,0.00,WUHU216HW,2013-08-03 17:10:00,
2013-08-03 10:15:00,81.2,55.3,29.90,SSE,163,2.4,4.7,41,0.00,,,0.00,WUHU216HW,2013-08-03 17:15:00,
2013-08-03 10:20:00,81.7,55.8,29.90,South,179,2.8,4.5,41,0.00,,,0.00,WUHU216HW,2013-08-03 17:20:00,
2013-08-03 10:25:00,82.4,55.8,29.90,SSW,197,2.9,4.9,40,0.00,,,0.00,WUHU216HW,2013-08-03 17:25:00,
2013-08-03 10:30:00,82.8,56.2,29.91,SSE,147,3.3,4.7,40,0.00,,,0.00,WUHU216HW,2013-08-03 17:30:00,
2013-08-03 10:40:00,83.7,57.0,29.90,SSE,160,2.2,3.8,40,0.00,,,0.00,WUHU216HW,2013-08-03 17:40:00,
2013-08-03 10:46:00,83.7,56.2,29.91,South,173,2.6,3.4,39,0.00,,,0.00,WUHU216HW,2013-08-03 17:46:00,
2013-08-03 10:51:00,83.9,56.4,29.90,South,188,3.3,4.7,39,0.00,,,0.00,WUHU216HW,2013-08-03 17:51:00,
2013-08-03 10:55:00,84.2,56.6,29.91,South,173,2.3,3.1,39,0.00,,,0.00,WUHU216HW,2013-08-03 17:55:00,
2013-08-03 11:01:00,84.8,56.4,29.90,SW,215,1.7,3.6,38,0.00,,,0.00,WUHU216HW,2013-08-03 18:01:00,
2013-08-03 11:06:00,85.1,56.6,29.90,SSW,211,1.9,3.4,38,0.00,,,0.00,WUHU216HW,2013-08-03 18:06:00,
2013-08-03 11:11:00,85.5,57.0,29.90,South,181,2.4,4.7,38,0.00,,,0.00,WUHU216HW,2013-08-03 18:11:00,
2013-08-03 11:15:00,86.0,58.2,29.90,SSE,164,1.6,3.4,39,0.00,,,0.00,WUHU216HW,2013-08-03 18:15:00,
2013-08-03 11:21:00,86.4,57.8,29.90,South,185,1.5,2.9,38,0.00,,,0.00,WUHU216HW,2013-08-03 18:21:00,
2013-08-03 11:25:00,86.8,58.1,29.90,SSW,208,2.1,4.0,38,0.00,,,0.00,WUHU216HW,2013-08-03 18:25:00,
2013-08-03 11:31:00,86.9,56.6,29.90,SW,223,2.0,3.4,36,0.00,,,0.00,WUHU216HW,2013-08-03 18:31:00,
2013-08-03 11:36:00,87.5,57.2,29.90,SSW,195,2.3,4.0,36,0.00,,,0.00,WUHU216HW,2013-08-03 18:36:00,
2013-08-03 11:45:00,87.8,55.0,29.90,West,262,1.9,3.6,33,0.00,,,0.00,WUHU216HW,2013-08-03 18:45:00,
2013-08-03 11:51:00,87.8,55.8,29.90,SW,234,2.4,3.8,34,0.00,,,0.00,WUHU216HW,2013-08-03 18:51:00,
2013-08-03 11:56:00,88.0,56.8,29.90,SSW,204,1.8,3.4,35,0.00,,,0.00,WUHU216HW,2013-08-03 18:56:00,
2013-08-03 12:01:00,88.2,56.9,29.90,WSW,244,2.3,4.0,35,0.00,,,0.00,WUHU216HW,2013-08-03 19:01:00,
2013-08-03 12:05:00,88.4,55.4,29.89,WNW,288,2.4,5.4,33,0.00,,,0.00,WUHU216HW,2013-08-03 19:05:00,
2013-08-03 12:16:00,89.1,55.3,29.89,SSW,204,2.1,3.8,32,0.00,,,0.00,WUHU216HW,2013-08-03 19:16:00,
2013-08-03 12:20:00,89.6,56.5,29.89,West,277,1.9,4.0,33,0.00,,,0.00,WUHU216HW,2013-08-03 19:20:00,
2013-08-03 12:26:00,90.0,55.3,29.89,West,259,2.5,3.8,31,0.00,,,0.00,WUHU216HW,2013-08-03 19:26:00,
2013-08-03 12:31:00,90.4,55.6,29.89,South,184,2.1,3.4,31,0.00,,,0.00,WUHU216HW,2013-08-03 19:31:00,
2013-08-03 12:36:00,90.9,56.1,29.89,SW,227,2.1,3.8,31,0.00,,,0.00,WUHU216HW,2013-08-03 19:36:00,
2013-08-03 12:41:00,91.1,56.3,29.89,SW,224,1.9,3.4,31,0.00,,,0.00,WUHU216HW,2013-08-03 19:41:00,
2013-08-03 12:46:00,91.6,56.7,29.89,WNW,282,1.2,2.2,31,0.00,,,0.00,WUHU216HW,2013-08-03 19:46:00,
2013-08-03 12:50:00,91.8,56.1,29.89,West,275,2.9,5.1,30,0.00,,,0.00,WUHU216HW,2013-08-03 19:50:00,
2013-08-03 12:56:00,92.0,56.3,29.89,WNW,290,2.5,4.5,30,0.00,,,0.00,WUHU216HW,2013-08-03 19:56:00,
2013-08-03 13:01:00,92.7,55.7,29.88,SSW,213,2.0,4.3,29,0.00,,,0.00,WUHU216HW,2013-08-03 20:01:00,
2013-08-03 13:06:00,93.1,53.8,29.88,SW,223,2.0,3.8,27,0.00,,,0.00,WUHU216HW,2013-08-03 20:06:00,
2013-08-03 13:11:00,93.1,53.8,29.88,West,277,2.8,4.5,27,0.00,,,0.00,WUHU216HW,2013-08-03 20:11:00,
2013-08-03 13:16:00,93.4,53.0,29.88,South,189,2.3,4.0,26,0.00,,,0.00,WUHU216HW,2013-08-03 20:16:00,
2013-08-03 13:21:00,93.4,54.1,29.88,West,275,2.0,4.7,27,0.00,,,0.00,WUHU216HW,2013-08-03 20:21:00,
2013-08-03 13:25:00,93.6,54.3,29.88,SW,229,2.0,4.7,27,0.00,,,0.00,WUHU216HW,2013-08-03 20:25:00,
2013-08-03 13:30:00,94.0,54.5,29.87,South,184,2.0,4.0,27,0.00,,,0.00,WUHU216HW,2013-08-03 20:30:00,
2013-08-03 13:35:00,93.8,54.5,29.87,WNW,285,2.3,4.7,27,0.00,,,0.00,WUHU216HW,2013-08-03 20:35:00,
2013-08-03 13:41:00,94.0,53.5,29.87,WSW,255,3.2,6.9,26,0.00,,,0.00,WUHU216HW,2013-08-03 20:41:00,
2013-08-03 13:46:00,94.1,52.5,29.87,West,276,2.5,6.3,25,0.00,,,0.00,WUHU216HW,2013-08-03 20:46:00,
2013-08-03 13:51:00,94.5,52.8,29.87,SW,218,2.0,4.0,25,0.00,,,0.00,WUHU216HW,2013-08-03 20:51:00,
2013-08-03 13:56:00,94.9,53.1,29.87,SSW,206,1.9,3.1,25,0.00,,,0.00,WUHU216HW,2013-08-03 20:56:00,
2013-08-03 14:01:00,95.2,53.5,29.87,South,188,2.5,4.3,25,0.00,,,0.00,WUHU216HW,2013-08-03 21:01:00,
2013-08-03 14:06:00,95.2,52.3,29.87,West,269,3.6,5.6,24,0.00,,,0.00,WUHU216HW,2013-08-03 21:06:00,
2013-08-03 14:11:00,95.0,52.2,29.86,WNW,299,2.8,5.4,24,0.00,,,0.00,WUHU216HW,2013-08-03 21:11:00,
2013-08-03 14:16:00,95.2,52.3,29.86,West,274,3.4,5.6,24,0.00,,,0.00,WUHU216HW,2013-08-03 21:16:00,
2013-08-03 14:21:00,95.4,50.2,29.86,WNW,287,4.1,6.3,22,0.00,,,0.00,WUHU216HW,2013-08-03 21:21:00,
2013-08-03 14:26:00,95.6,49.3,29.86,WNW,302,3.3,4.0,21,0.00,,,0.00,WUHU216HW,2013-08-03 21:26:00,
2013-08-03 14:31:00,95.4,48.1,29.86,WNW,297,1.9,3.8,20,0.00,,,0.00,WUHU216HW,2013-08-03 21:31:00,
2013-08-03 14:36:00,95.8,48.3,29.86,West,264,2.2,4.3,20,0.00,,,0.00,WUHU216HW,2013-08-03 21:36:00,
2013-08-03 14:41:00,95.9,48.5,29.86,NW,314,3.1,5.4,20,0.00,,,0.00,WUHU216HW,2013-08-03 21:41:00,
2013-08-03 14:46:00,95.9,50.8,29.86,West,279,2.0,4.9,22,0.00,,,0.00,WUHU216HW,2013-08-03 21:46:00,
2013-08-03 14:51:00,95.9,48.5,29.85,WSW,258,3.6,6.3,20,0.00,,,0.00,WUHU216HW,2013-08-03 21:51:00,
2013-08-03 14:56:00,96.1,48.7,29.85,WNW,291,3.5,5.8,20,0.00,,,0.00,WUHU216HW,2013-08-03 21:56:00,
2013-08-03 15:01:00,96.1,46.9,29.85,NW,322,1.8,4.7,19,0.00,,,0.00,WUHU216HW,2013-08-03 22:01:00,
2013-08-03 15:06:00,96.5,47.2,29.85,SW,220,2.0,4.0,19,0.00,,,0.00,WUHU216HW,2013-08-03 22:06:00,
2013-08-03 15:11:00,96.5,49.0,29.85,NW,306,3.6,5.1,20,0.00,,,0.00,WUHU216HW,2013-08-03 22:11:00,
2013-08-03 15:16:00,96.3,48.9,29.85,NW,312,2.9,4.0,20,0.00,,,0.00,WUHU216HW,2013-08-03 22:16:00,
2013-08-03 15:21:00,96.5,49.0,29.85,NW,305,3.6,6.5,20,0.00,,,0.00,WUHU216HW,2013-08-03 22:21:00,
2013-08-03 15:26:00,96.8,49.3,29.85,West,276,3.0,4.7,20,0.00,,,0.00,WUHU216HW,2013-08-03 22:26:00,
2013-08-03 15:31:00,96.8,49.3,29.84,WNW,301,2.9,4.3,20,0.00,,,0.00,WUHU216HW,2013-08-03 22:31:00,
2013-08-03 15:36:00,97.2,49.6,29.84,WNW,284,1.8,3.4,20,0.00,,,0.00,WUHU216HW,2013-08-03 22:36:00,
2013-08-03 15:41:00,97.7,50.0,29.84,West,276,3.6,6.3,20,0.00,,,0.00,WUHU216HW,2013-08-03 22:41:00,
2013-08-03 15:46:00,97.7,50.0,29.84,SW,224,2.5,5.4,20,0.00,,,0.00,WUHU216HW,2013-08-03 22:46:00,
2013-08-03 15:51:00,97.9,50.2,29.84,WNW,289,3.2,6.3,20,0.00,,,0.00,WUHU216HW,2013-08-03 22:51:00,
2013-08-03 15:56:00,97.7,50.0,29.84,WNW,285,3.2,5.1,20,0.00,,,0.00,WUHU216HW,2013-08-03 22:56:00,
2013-08-03 16:01:00,97.4,49.8,29.83,NW,314,2.4,5.6,20,0.00,,,0.00,WUHU216HW,2013-08-03 23:01:00,
2013-08-03 16:07:00,97.0,49.5,29.83,WNW,290,1.5,3.4,20,0.00,,,0.00,WUHU216HW,2013-08-03 23:07:00,
2013-08-03 16:11:00,97.0,49.5,29.83,WNW,283,2.4,4.0,20,0.00,,,0.00,WUHU216HW,2013-08-03 23:11:00,
2013-08-03 16:17:00,97.0,50.6,29.83,West,270,1.8,3.1,21,0.00,,,0.00,WUHU216HW,2013-08-03 23:17:00,
2013-08-03 16:22:00,97.2,51.9,29.83,West,278,3.1,5.4,22,0.00,,,0.00,WUHU216HW,2013-08-03 23:22:00,
2013-08-03 16:27:00,97.4,49.8,29.83,WNW,285,2.3,4.5,20,0.00,,,0.00,WUHU216HW,2013-08-03 23:27:00,
2013-08-03 16:32:00,97.4,51.9,29.82,West,278,2.7,5.8,22,0.00,,,0.00,WUHU216HW,2013-08-03 23:32:00,
2013-08-03 16:37:00,97.4,51.9,29.83,WNW,289,3.8,4.9,22,0.00,,,0.00,WUHU216HW,2013-08-03 23:37:00,
2013-08-03 16:42:00,97.4,51.9,29.83,West,259,2.5,4.3,22,0.00,,,0.00,WUHU216HW,2013-08-03 23:42:00,
2013-08-03 16:47:00,97.0,50.6,29.82,NW,322,2.5,4.7,21,0.00,,,0.00,WUHU216HW,2013-08-03 23:47:00,
2013-08-03 16:52:00,96.5,51.2,29.82,NNW,330,2.0,4.7,22,0.00,,,0.00,WUHU216HW,2013-08-03 23:52:00,
2013-08-03 16:57:00,96.5,51.2,29.82,WNW,290,4.0,6.0,22,0.00,,,0.00,WUHU216HW,2013-08-03 23:57:00,
2013-08-03 17:02:00,96.5,49.0,29.82,NW,311,2.3,4.3,20,0.00,,,0.00,WUHU216HW,2013-08-04 00:02:00,
2013-08-03 17:07:00,96.5,49.0,29.82,NW,309,3.0,5.8,20,0.00,,,0.00,WUHU216HW,2013-08-04 00:07:00,
2013-08-03 17:12:00,96.3,50.0,29.82,NW,309,4.2,6.9,21,0.00,,,0.00,WUHU216HW,2013-08-04 00:12:00,
2013-08-03 17:17:00,96.1,49.8,29.82,NW,310,1.8,3.6,21,0.00,,,0.00,WUHU216HW,2013-08-04 00:17:00,
2013-08-03 17:22:00,96.5,49.0,29.82,WNW,292,3.3,4.7,20,0.00,,,0.00,WUHU216HW,2013-08-04 00:22:00,
2013-08-03 17:27:00,96.3,48.9,29.82,WNW,288,4.1,6.7,20,0.00,,,0.00,WUHU216HW,2013-08-04 00:27:00,
2013-08-03 17:32:00,96.1,46.9,29.82,NW,309,3.3,5.4,19,0.00,,,0.00,WUHU216HW,2013-08-04 00:32:00,
2013-08-03 17:37:00,96.1,48.7,29.81,WNW,301,3.0,5.1,20,0.00,,,0.00,WUHU216HW,2013-08-04 00:37:00,
2013-08-03 17:42:00,96.1,46.9,29.81,WNW,283,2.8,5.4,19,0.00,,,0.00,WUHU216HW,2013-08-04 00:42:00,
2013-08-03 17:47:00,95.9,46.7,29.81,WNW,303,3.7,4.9,19,0.00,,,0.00,WUHU216HW,2013-08-04 00:47:00,
2013-08-03 17:52:00,95.8,48.3,29.81,NW,318,2.4,4.9,20,0.00,,,0.00,WUHU216HW,2013-08-04 00:52:00,
2013-08-03 17:57:00,95.9,46.7,29.80,WNW,296,2.7,4.0,19,0.00,,,0.00,WUHU216HW,2013-08-04 00:57:00,
2013-08-03 18:02:00,95.8,46.5,29.80,WNW,289,3.7,4.9,19,0.00,,,0.00,WUHU216HW,2013-08-04 01:02:00,
2013-08-03 18:07:00,95.8,48.3,29.80,NW,319,2.9,5.1,20,0.00,,,0.00,WUHU216HW,2013-08-04 01:07:00,
2013-08-03 18:12:00,95.4,48.1,29.80,NW,314,2.1,4.0,20,0.00,,,0.00,WUHU216HW,2013-08-04 01:12:00,
2013-08-03 18:17:00,95.0,47.7,29.81,NW,312,2.4,4.0,20,0.00,,,0.00,WUHU216HW,2013-08-04 01:17:00,
2013-08-03 18:22:00,95.2,47.9,29.80,NW,305,3.2,5.1,20,0.00,,,0.00,WUHU216HW,2013-08-04 01:22:00,
2013-08-03 18:27:00,95.0,47.7,29.80,NW,315,2.2,3.6,20,0.00,,,0.00,WUHU216HW,2013-08-04 01:27:00,
2013-08-03 18:32:00,94.9,45.8,29.80,NW,319,2.8,4.7,19,0.00,,,0.00,WUHU216HW,2013-08-04 01:32:00,
2013-08-03 18:37:00,94.7,45.6,29.81,NW,308,3.0,5.4,19,0.00,,,0.00,WUHU216HW,2013-08-04 01:37:00,
2013-08-03 18:42:00,94.5,45.6,29.81,WNW,296,3.1,4.0,19,0.00,,,0.00,WUHU216HW,2013-08-04 01:42:00,
2013-08-03 18:47:00,94.1,45.2,29.81,NW,315,2.6,4.0,19,0.00,,,0.00,WUHU216HW,2013-08-04 01:47:00,
2013-08-03 18:52:00,94.0,45.1,29.81,NW,317,2.8,4.0,19,0.00,,,0.00,WUHU216HW,2013-08-04 01:52:00,
2013-08-03 18:57:00,93.8,44.9,29.81,NW,317,1.9,3.4,19,0.00,,,0.00,WUHU216HW,2013-08-04 01:57:00,
2013-08-03 19:02:00,93.6,44.8,29.81,NW,310,2.0,3.1,19,0.00,,,0.00,WUHU216HW,2013-08-04 02:02:00,
2013-08-03 19:07:00,93.2,44.5,29.81,NW,320,1.3,2.5,19,0.00,,,0.00,WUHU216HW,2013-08-04 02:07:00,
2013-08-03 19:12:00,92.9,44.2,29.81,NW,320,1.1,2.5,19,0.00,,,0.00,WUHU216HW,2013-08-04 02:12:00,
2013-08-03 19:17:00,92.5,43.9,29.81,NW,324,0.4,1.3,19,0.00,,,0.00,WUHU216HW,2013-08-04 02:17:00,
2013-08-03 19:22:00,92.2,43.7,29.81,NW,315,1.9,3.1,19,0.00,,,0.00,WUHU216HW,2013-08-04 02:22:00,
2013-08-03 19:27:00,91.8,43.4,29.81,NW,314,1.9,2.5,19,0.00,,,0.00,WUHU216HW,2013-08-04 02:27:00,
2013-08-03 19:32:00,91.4,45.9,29.81,NW,316,1.0,1.8,21,0.00,,,0.00,WUHU216HW,2013-08-04 02:32:00,
2013-08-03 19:37:00,91.1,45.6,29.81,NW,315,1.1,1.8,21,0.00,,,0.00,WUHU216HW,2013-08-04 02:37:00,
2013-08-03 19:47:00,90.4,47.3,29.81,North,0,0.0,0.0,23,0.00,,,0.00,WUHU216HW,2013-08-04 02:47:00,
2013-08-03 19:52:00,89.5,47.5,29.82,North,0,0.0,0.0,24,0.00,,,0.00,WUHU216HW,2013-08-04 02:52:00,
2013-08-03 19:57:00,88.6,47.9,29.81,North,0,0.0,0.0,25,0.00,,,0.00,WUHU216HW,2013-08-04 02:57:00,
2013-08-03 20:02:00,87.5,48.0,29.81,North,0,0.0,0.0,26,0.00,,,0.00,WUHU216HW,2013-08-04 03:02:00,
2013-08-03 20:07:00,86.4,49.2,29.81,North,0,0.0,0.0,28,0.00,,,0.00,WUHU216HW,2013-08-04 03:07:00,
2013-08-03 20:12:00,85.7,48.6,29.81,North,0,0.0,0.0,28,0.00,,,0.00,WUHU216HW,2013-08-04 03:12:00,
2013-08-03 20:17:00,85.0,48.0,29.82,North,0,0.0,0.0,28,0.00,,,0.00,WUHU216HW,2013-08-04 03:17:00,
2013-08-03 20:22:00,84.6,48.8,29.82,North,0,0.0,0.0,29,0.00,,,0.00,WUHU216HW,2013-08-04 03:22:00,
2013-08-03 20:27:00,83.7,49.1,29.82,North,0,0.0,0.0,30,0.00,,,0.00,WUHU216HW,2013-08-04 03:27:00,
2013-08-03 20:32:00,83.0,49.1,29.82,North,0,0.0,0.0,31,0.00,,,0.00,WUHU216HW,2013-08-04 03:32:00,
2013-08-03 20:37:00,82.3,49.3,29.82,North,0,0.0,0.0,32,0.00,,,0.00,WUHU216HW,2013-08-04 03:37:00,
2013-08-03 20:42:00,81.4,50.1,29.82,North,0,0.0,0.0,34,0.00,,,0.00,WUHU216HW,2013-08-04 03:42:00,
2013-08-03 20:47:00,80.3,50.0,29.82,North,0,0.0,0.0,35,0.00,,,0.00,WUHU216HW,2013-08-04 03:47:00,
2013-08-03 20:52:00,79.7,49.5,29.82,North,0,0.0,0.0,35,0.00,,,0.00,WUHU216HW,2013-08-04 03:52:00,
2013-08-03 20:57:00,79.6,50.9,29.83,North,0,0.0,0.0,37,0.00,,,0.00,WUHU216HW,2013-08-04 03:57:00,
2013-08-03 21:02:00,79.2,50.6,29.83,North,0,0.0,0.0,37,0.00,,,0.00,WUHU216HW,2013-08-04 04:02:00,
2013-08-03 21:07:00,78.7,50.9,29.83,North,0,0.0,0.0,38,0.00,,,0.00,WUHU216HW,2013-08-04 04:07:00,
2013-08-03 21:12:00,78.3,50.6,29.83,North,0,0.0,0.0,38,0.00,,,0.00,WUHU216HW,2013-08-04 04:12:00,
2013-08-03 21:17:00,78.1,50.4,29.83,North,0,0.0,0.0,38,0.00,,,0.00,WUHU216HW,2013-08-04 04:17:00,
2013-08-03 21:22:00,77.8,50.0,29.84,North,0,0.0,0.0,38,0.00,,,0.00,WUHU216HW,2013-08-04 04:22:00,
2013-08-03 21:27:00,77.8,50.0,29.84,North,0,0.0,0.0,38,0.00,,,0.00,WUHU216HW,2013-08-04 04:27:00,
2013-08-03 21:32:00,77.4,49.8,29.84,North,0,0.0,0.0,38,0.00,,,0.00,WUHU216HW,2013-08-04 04:32:00,
2013-08-03 21:37:00,77.2,50.3,29.84,North,0,0.0,0.0,39,0.00,,,0.00,WUHU216HW,2013-08-04 04:37:00,
2013-08-03 21:42:00,76.7,50.6,29.84,North,0,0.0,0.0,40,0.00,,,0.00,WUHU216HW,2013-08-04 04:42:00,
2013-08-03 21:47:00,76.1,50.1,29.84,North,0,0.0,0.0,40,0.00,,,0.00,WUHU216HW,2013-08-04 04:47:00,
2013-08-03 21:52:00,76.0,50.0,29.84,North,0,0.0,0.0,40,0.00,,,0.00,WUHU216HW,2013-08-04 04:52:00,
2013-08-03 21:57:00,75.8,50.4,29.85,North,0,0.0,0.0,41,0.00,,,0.00,WUHU216HW,2013-08-04 04:57:00,
2013-08-03 22:02:00,75.6,51.5,29.85,North,0,0.0,0.0,43,0.00,,,0.00,WUHU216HW,2013-08-04 05:02:00,
2013-08-03 22:07:00,75.6,50.9,29.85,North,0,0.0,0.0,42,0.00,,,0.00,WUHU216HW,2013-08-04 05:07:00,
2013-08-03 22:12:00,75.4,50.7,29.85,North,0,0.0,0.0,42,0.00,,,0.00,WUHU216HW,2013-08-04 05:12:00,
2013-08-03 22:17:00,75.1,51.0,29.85,North,0,0.0,0.0,43,0.00,,,0.00,WUHU216HW,2013-08-04 05:17:00,
2013-08-03 22:22:00,74.7,51.3,29.85,North,0,0.0,0.0,44,0.00,,,0.00,WUHU216HW,2013-08-04 05:22:00,
2013-08-03 22:27:00,74.2,51.4,29.85,North,0,0.0,0.0,45,0.00,,,0.00,WUHU216HW,2013-08-04 05:27:00,
2013-08-03 22:32:00,73.4,51.8,29.85,North,0,0.0,0.0,47,0.00,,,0.00,WUHU216HW,2013-08-04 05:32:00,
2013-08-03 22:37:00,73.4,51.3,29.85,North,0,0.0,0.0,46,0.00,,,0.00,WUHU216HW,2013-08-04 05:37:00,
2013-08-03 22:42:00,73.8,51.0,29.85,WNW,293,0.2,0.2,45,0.00,,,0.00,WUHU216HW,2013-08-04 05:42:00,
2013-08-03 22:47:00,74.0,51.2,29.85,North,0,0.0,0.0,45,0.00,,,0.00,WUHU216HW,2013-08-04 05:47:00,
2013-08-03 22:52:00,74.0,51.2,29.85,North,0,0.0,0.0,45,0.00,,,0.00,WUHU216HW,2013-08-04 05:52:00,
2013-08-03 22:57:00,74.0,51.2,29.85,North,0,0.0,0.0,45,0.00,,,0.00,WUHU216HW,2013-08-04 05:57:00,
2013-08-03 23:02:00,73.6,50.9,29.85,North,0,0.0,0.0,45,0.00,,,0.00,WUHU216HW,2013-08-04 06:02:00,
2013-08-03 23:07:00,73.1,51.6,29.85,East,90,0.2,0.2,47,0.00,,,0.00,WUHU216HW,2013-08-04 06:07:00,
2013-08-03 23:12:00,72.4,50.3,29.86,NNW,338,0.6,0.7,46,0.00,,,0.00,WUHU216HW,2013-08-04 06:12:00,
2013-08-03 23:17:00,72.0,50.6,29.86,NE,50,0.4,0.7,47,0.00,,,0.00,WUHU216HW,2013-08-04 06:17:00,
2013-08-03 23:22:00,71.5,50.7,29.86,North,0,0.0,0.0,48,0.00,,,0.00,WUHU216HW,2013-08-04 06:22:00,
2013-08-03 23:27:00,70.9,50.8,29.86,ESE,113,0.3,0.4,49,0.00,,,0.00,WUHU216HW,2013-08-04 06:27:00,
2013-08-03 23:32:00,70.6,51.6,29.86,North,0,0.0,0.0,51,0.00,,,0.00,WUHU216HW,2013-08-04 06:32:00,
2013-08-03 23:37:00,70.6,52.6,29.87,South,174,1.1,2.7,53,0.00,,,0.00,WUHU216HW,2013-08-04 06:37:00,
2013-08-03 23:42:00,70.4,51.9,29.87,SSE,162,1.8,2.7,52,0.00,,,0.00,WUHU216HW,2013-08-04 06:42:00,
2013-08-03 23:47:00,70.6,52.0,29.87,SSW,209,0.7,1.1,52,0.00,,,0.00,WUHU216HW,2013-08-04 06:47:00,
2013-08-03 23:52:00,70.6,52.0,29.87,North,0,0.0,0.0,52,0.00,,,0.00,WUHU216HW,2013-08-04 06:52:00,
2013-08-03 23:57:00,70.6,51.6,29.87,ESE,112,0.4,0.9,51,0.00,,,0.00,WUHU216HW,2013-08-04 06:57:00,